createdAt,value
2022-09-16T00:01:54.646Z,0.60
2022-09-16T00:04:21.546Z,0.90
2022-09-16T00:06:48.089Z,0.80
2022-09-16T00:09:14.646Z,0.67
2022-09-16T00:11:41.235Z,0.90
2022-09-16T00:14:07.835Z,1.07
2022-09-16T00:16:34.660Z,1.30
2022-09-16T00:19:01.986Z,1.23
2022-09-16T00:21:29.843Z,1.33
2022-09-16T00:23:57.048Z,0.77
2022-09-16T00:26:24.141Z,0.80
2022-09-16T00:28:51.031Z,1.30
2022-09-16T00:31:18.242Z,1.33
2022-09-16T00:33:44.917Z,1.13
2022-09-16T00:36:15.431Z,1.47
2022-09-16T00:38:42.685Z,0.87
2022-09-16T00:41:16.376Z,1.03
2022-09-16T00:43:56.672Z,0.70
2022-09-16T00:46:30.771Z,1.20
2022-09-16T00:49:01.197Z,1.00
2022-09-16T00:51:29.054Z,0.90
2022-09-16T00:54:00.255Z,1.20
2022-09-16T00:56:30.297Z,0.90
2022-09-16T00:59:04.801Z,1.27
2022-09-16T01:01:32.486Z,1.57
2022-09-16T01:04:04.812Z,0.53
2022-09-16T01:06:36.150Z,0.70
2022-09-16T01:09:02.808Z,0.93
2022-09-16T01:11:29.798Z,0.90
2022-09-16T01:14:16.981Z,1.03
2022-09-16T01:16:50.068Z,1.13
2022-09-16T01:19:46.786Z,0.87
2022-09-16T01:23:02.605Z,1.37
2022-09-16T01:25:49.585Z,0.80
2022-09-16T01:28:28.298Z,0.93
2022-09-16T01:31:19.303Z,0.70
2022-09-16T01:34:19.545Z,0.50
2022-09-16T01:37:02.325Z,0.70
2022-09-16T01:39:50.974Z,0.53
2022-09-16T01:42:36.077Z,0.70
2022-09-16T01:45:08.456Z,0.50
2022-09-16T01:47:50.789Z,0.70
2022-09-16T01:50:25.281Z,0.50
2022-09-16T01:53:12.985Z,0.70
2022-09-16T01:55:54.525Z,0.40
2022-09-16T01:58:33.545Z,0.60
2022-09-16T02:01:06.728Z,0.47
2022-09-16T02:03:36.871Z,0.40
2022-09-16T02:06:08.768Z,0.50
2022-09-16T02:08:43.402Z,0.50
2022-09-16T02:11:14.140Z,0.40
2022-09-16T02:13:45.168Z,0.90
2022-09-16T02:16:17.049Z,0.77
2022-09-16T02:18:50.964Z,0.60
2022-09-16T02:21:20.707Z,0.80
2022-09-16T02:23:51.703Z,0.60
2022-09-16T02:26:24.602Z,0.50
2022-09-16T02:28:53.521Z,0.70
2022-09-16T02:31:26.036Z,0.27
2022-09-16T02:34:00.836Z,0.43
2022-09-16T02:36:30.644Z,0.53
2022-09-16T02:39:05.898Z,0.40
2022-09-16T02:41:32.777Z,0.40
2022-09-16T02:43:59.337Z,0.40
2022-09-16T02:46:48.624Z,0.43
2022-09-16T02:49:33.905Z,0.63
2022-09-16T02:52:20.605Z,0.40
2022-09-16T02:55:10.523Z,0.40
2022-09-16T02:57:38.422Z,0.60
2022-09-16T03:00:06.585Z,0.37
2022-09-16T03:02:34.864Z,0.47
2022-09-16T03:05:02.361Z,0.70
2022-09-16T03:07:29.430Z,0.60
2022-09-16T03:09:56.550Z,0.40
2022-09-16T03:12:35.352Z,0.60
2022-09-16T03:15:27.942Z,0.27
2022-09-16T03:18:22.026Z,0.50
2022-09-16T03:21:08.588Z,0.60
2022-09-16T03:23:57.601Z,0.30
2022-09-16T03:26:48.070Z,0.40
2022-09-16T03:29:48.574Z,0.47
2022-09-16T03:32:24.187Z,0.47
2022-09-16T03:35:25.889Z,2.03
2022-09-16T03:37:55.946Z,1.33
2022-09-16T03:40:23.723Z,0.60
2022-09-16T03:42:50.505Z,0.60
2022-09-16T03:45:20.975Z,1.17
2022-09-16T03:47:49.970Z,0.77
2022-09-16T03:50:17.800Z,0.70
2022-09-16T03:52:44.389Z,0.73
2022-09-16T03:55:11.297Z,0.60
2022-09-16T03:57:38.741Z,0.77
2022-09-16T04:00:08.558Z,0.57
2022-09-16T04:02:36.002Z,0.87
2022-09-16T04:05:02.625Z,1.03
2022-09-16T04:07:29.191Z,0.80
2022-09-16T04:09:55.843Z,0.60
2022-09-16T04:12:22.468Z,0.50
2022-09-16T04:14:49.013Z,0.60
2022-09-16T04:17:15.571Z,1.23
2022-09-16T04:19:42.129Z,1.03
2022-09-16T04:22:08.800Z,1.13
2022-09-16T04:24:35.934Z,0.80
2022-09-16T04:27:02.423Z,0.70
2022-09-16T04:29:29.021Z,1.00
2022-09-16T04:31:55.524Z,0.70
2022-09-16T04:34:22.271Z,0.90
2022-09-16T04:36:48.826Z,1.37
2022-09-16T04:39:15.592Z,0.70
2022-09-16T04:41:42.297Z,0.90
2022-09-16T04:44:10.512Z,0.83
2022-09-16T04:46:37.393Z,1.13
2022-09-16T04:49:04.213Z,1.00
2022-09-16T04:51:32.353Z,0.87
2022-09-16T04:54:00.276Z,1.10
2022-09-16T04:56:31.630Z,1.00
2022-09-16T04:59:04.492Z,1.03
2022-09-16T05:01:37.699Z,1.13
2022-09-16T05:04:07.189Z,1.53
2022-09-16T05:06:36.975Z,1.30
2022-09-16T05:09:04.197Z,1.70
2022-09-16T05:11:36.982Z,1.23
2022-09-16T05:14:06.560Z,1.67
2022-09-16T05:16:33.800Z,1.33
2022-09-16T05:19:03.956Z,1.43
2022-09-16T05:21:33.536Z,1.37
2022-09-16T05:24:02.415Z,1.77
2022-09-16T05:26:31.795Z,1.77
2022-09-16T05:29:11.334Z,1.53
2022-09-16T05:31:40.122Z,1.80
2022-09-16T05:34:18.651Z,1.40
2022-09-16T05:36:47.881Z,1.90
2022-09-16T05:39:25.947Z,1.70
2022-09-16T05:41:58.438Z,1.57
2022-09-16T05:44:26.798Z,1.40
2022-09-16T05:46:53.987Z,1.57
2022-09-16T05:49:21.357Z,1.37
2022-09-16T05:51:49.189Z,1.43
2022-09-16T05:54:18.661Z,1.43
2022-09-16T05:56:46.544Z,1.57
2022-09-16T05:59:14.724Z,1.50
2022-09-16T06:01:41.922Z,1.73
2022-09-16T06:04:11.968Z,1.53
2022-09-16T06:06:41.468Z,1.27
2022-09-16T06:09:10.884Z,1.43
2022-09-16T06:11:42.761Z,1.20
2022-09-16T06:14:10.140Z,1.30
2022-09-16T06:16:37.836Z,2.10
2022-09-16T06:19:10.539Z,1.93
2022-09-16T06:21:38.388Z,1.70
2022-09-16T06:24:09.225Z,1.90
2022-09-16T06:26:41.168Z,2.03
2022-09-16T06:29:08.883Z,1.73
2022-09-16T06:31:36.652Z,1.77
2022-09-16T06:34:04.076Z,1.50
2022-09-16T06:36:32.859Z,1.90
2022-09-16T06:38:59.667Z,1.47
2022-09-16T06:41:26.486Z,1.67
2022-09-16T06:43:53.107Z,1.23
2022-09-16T06:46:25.045Z,1.33
2022-09-16T06:48:54.011Z,1.20
2022-09-16T06:51:24.830Z,1.33
2022-09-16T06:53:52.411Z,1.77
2022-09-16T06:56:21.263Z,1.17
2022-09-16T06:58:50.246Z,1.63
2022-09-16T07:01:19.247Z,1.60
2022-09-16T07:03:48.496Z,1.30
2022-09-16T07:06:16.354Z,1.50
2022-09-16T07:08:43.794Z,1.70
2022-09-16T07:11:15.951Z,1.13
2022-09-16T07:13:43.648Z,1.10
2022-09-16T07:16:14.416Z,1.40
2022-09-16T07:18:42.241Z,1.10
2022-09-16T07:21:13.414Z,1.40
2022-09-16T07:23:41.466Z,1.20
2022-09-16T07:26:24.085Z,1.27
2022-09-16T07:28:51.439Z,1.27
2022-09-16T07:31:21.115Z,0.90
2022-09-16T07:33:50.970Z,1.13
2022-09-16T07:36:23.470Z,0.80
2022-09-16T07:38:50.598Z,1.20
2022-09-16T07:41:23.085Z,0.90
2022-09-16T07:43:50.849Z,0.70
2022-09-16T07:46:20.056Z,0.90
2022-09-16T07:48:49.328Z,0.73
2022-09-16T07:51:20.535Z,1.10
2022-09-16T07:53:47.745Z,0.80
2022-09-16T07:56:20.386Z,0.70
2022-09-16T07:58:47.976Z,0.77
2022-09-16T08:01:16.648Z,0.57
2022-09-16T08:03:44.613Z,0.70
2022-09-16T08:06:19.964Z,0.60
2022-09-16T08:08:47.260Z,0.80
2022-09-16T08:11:15.391Z,0.63
2022-09-16T08:13:43.970Z,0.57
2022-09-16T08:16:19.407Z,0.60
2022-09-16T08:18:50.151Z,1.60
2022-09-16T08:21:21.008Z,0.73
2022-09-16T08:23:47.813Z,0.43
2022-09-16T08:26:15.378Z,0.73
2022-09-16T08:29:07.480Z,1.00
2022-09-16T08:31:30.918Z,0.50
2022-09-16T08:33:57.854Z,0.68
2022-09-16T08:36:25.607Z,0.90
2022-09-16T08:38:56.302Z,0.37
2022-09-16T08:41:44.131Z,0.65
2022-09-16T08:44:50.762Z,0.43
2022-09-16T08:47:31.949Z,0.35
2022-09-16T08:50:02.449Z,0.52
2022-09-16T08:52:33.822Z,0.77
2022-09-16T08:55:10.702Z,0.87
2022-09-16T08:57:46.275Z,0.50
2022-09-16T09:00:16.324Z,0.53
2022-09-16T09:02:53.219Z,0.60
2022-09-16T09:05:34.619Z,0.70
2022-09-16T09:08:19.903Z,0.50
2022-09-16T09:10:53.752Z,0.50
2022-09-16T09:13:32.750Z,1.58
2022-09-16T09:16:23.642Z,1.02
2022-09-16T09:19:31.771Z,0.88
2022-09-16T09:22:27.273Z,0.57
2022-09-16T09:25:14.237Z,0.45
2022-09-16T09:27:59.234Z,0.82
2022-09-16T09:30:27.829Z,0.77
2022-09-16T09:33:27.619Z,0.40
2022-09-16T09:36:28.250Z,0.68
2022-09-16T09:39:13.521Z,0.63
2022-09-16T09:41:45.782Z,0.47
2022-09-16T09:44:28.972Z,0.50
2022-09-16T09:47:01.566Z,0.40
2022-09-16T09:49:31.411Z,0.57
2022-09-16T09:52:20.031Z,0.50
2022-09-16T09:54:51.148Z,0.45
2022-09-16T09:57:29.163Z,0.60
2022-09-16T10:00:12.792Z,0.65
2022-09-16T10:02:44.011Z,0.60
2022-09-16T10:05:29.909Z,1.05
2022-09-16T10:08:00.625Z,0.88
2022-09-16T10:10:32.231Z,0.50
2022-09-16T10:13:10.242Z,0.50
2022-09-16T10:15:37.348Z,0.52
2022-09-16T10:18:12.629Z,0.70
2022-09-16T10:20:43.666Z,0.50
2022-09-16T10:23:13.846Z,0.57
2022-09-16T10:25:41.550Z,0.70
2022-09-16T10:28:23.800Z,0.52
2022-09-16T10:30:53.672Z,0.52
2022-09-16T10:33:46.778Z,0.80
2022-09-16T10:36:26.673Z,0.60
2022-09-16T10:39:04.751Z,1.02
2022-09-16T10:41:46.099Z,2.35
2022-09-16T10:44:33.023Z,0.65
2022-09-16T10:47:09.413Z,0.55
2022-09-16T10:49:39.163Z,0.50
2022-09-16T10:52:29.358Z,0.50
2022-09-16T10:54:57.082Z,0.40
2022-09-16T10:57:32.373Z,0.40
2022-09-16T11:00:20.015Z,0.65
2022-09-16T11:03:31.296Z,0.40
2022-09-16T11:06:16.041Z,0.73
2022-09-16T11:08:52.857Z,0.43
2022-09-16T11:11:55.141Z,0.73
2022-09-16T11:14:30.083Z,0.47
2022-09-16T11:17:15.693Z,0.55
2022-09-16T11:20:26.496Z,0.80
2022-09-16T11:23:09.154Z,0.80
2022-09-16T11:25:53.390Z,0.50
2022-09-16T11:28:41.628Z,0.52
2022-09-16T11:31:39.190Z,0.70
2022-09-16T11:34:34.395Z,0.70
2022-09-16T11:37:49.809Z,0.60
2022-09-16T11:40:31.802Z,0.50
2022-09-16T11:43:29.591Z,0.50
2022-09-16T11:46:06.732Z,0.47
2022-09-16T11:48:39.319Z,0.28
2022-09-16T11:51:22.034Z,0.50
2022-09-16T11:53:56.290Z,1.13
2022-09-16T11:56:33.661Z,0.60
2022-09-16T11:59:12.466Z,0.70
2022-09-16T12:01:44.576Z,0.80
2022-09-16T12:04:23.438Z,0.40
2022-09-16T12:07:02.285Z,0.40
2022-09-16T12:09:52.099Z,0.30
2022-09-16T12:12:32.627Z,0.20
2022-09-16T12:15:05.797Z,0.30
2022-09-16T12:17:36.694Z,0.20
2022-09-16T12:20:30.121Z,0.40
2022-09-16T12:23:07.425Z,0.35
2022-09-16T12:26:02.947Z,0.38
2022-09-16T12:28:39.005Z,0.20
2022-09-16T12:31:11.344Z,0.50
2022-09-16T12:33:54.765Z,0.60
2022-09-16T12:36:28.398Z,1.20
2022-09-16T12:38:59.247Z,0.40
2022-09-16T12:41:37.953Z,0.40
2022-09-16T12:44:33.578Z,0.30
2022-09-16T12:47:07.286Z,0.40
2022-09-16T12:49:55.708Z,0.20
2022-09-16T12:52:28.115Z,0.47
2022-09-16T12:55:32.101Z,0.40
2022-09-16T12:58:15.477Z,0.47
2022-09-16T13:00:54.047Z,0.30
2022-09-16T13:03:24.415Z,0.35
2022-09-16T13:05:53.968Z,0.28
2022-09-16T13:08:28.238Z,0.40
2022-09-16T13:11:19.262Z,0.40
2022-09-16T13:13:51.800Z,0.50
2022-09-16T13:16:35.519Z,0.40
2022-09-16T13:19:23.973Z,0.40
2022-09-16T13:22:01.167Z,0.30
2022-09-16T13:24:42.121Z,0.45
2022-09-16T13:27:53.240Z,0.60
2022-09-16T13:30:29.781Z,0.30
2022-09-16T13:32:56.434Z,0.50
2022-09-16T13:35:38.907Z,0.40
2022-09-16T13:38:14.657Z,0.52
2022-09-16T13:40:53.518Z,0.40
2022-09-16T13:43:31.586Z,0.30
2022-09-16T13:46:07.640Z,0.52
2022-09-16T13:48:42.971Z,0.35
2022-09-16T13:51:16.526Z,0.60
2022-09-16T13:53:52.190Z,0.22
2022-09-16T13:56:54.699Z,0.50
2022-09-16T13:59:40.526Z,0.47
2022-09-16T14:02:19.827Z,0.40
2022-09-16T14:05:25.464Z,0.30
2022-09-16T14:08:22.703Z,0.30
2022-09-16T14:11:14.249Z,0.38
2022-09-16T14:13:45.558Z,0.30
2022-09-16T14:16:24.269Z,0.30
2022-09-16T14:19:04.621Z,0.47
2022-09-16T14:21:31.893Z,0.30
2022-09-16T14:24:18.608Z,0.52
2022-09-16T14:26:56.694Z,0.35
2022-09-16T14:29:25.311Z,0.30
2022-09-16T14:31:55.332Z,0.40
2022-09-16T14:34:53.172Z,0.30
2022-09-16T14:37:21.779Z,0.32
2022-09-16T14:39:53.232Z,0.28
2022-09-16T14:42:23.115Z,0.43
2022-09-16T14:44:53.903Z,0.40
2022-09-16T14:47:52.105Z,0.30
2022-09-16T14:50:32.264Z,0.35
2022-09-16T14:53:04.622Z,0.20
2022-09-16T14:55:33.708Z,0.45
2022-09-16T14:58:00.812Z,0.30
2022-09-16T15:00:50.326Z,0.20
2022-09-16T15:03:24.916Z,0.30
2022-09-16T15:05:55.259Z,0.60
2022-09-16T15:08:46.949Z,0.43
2022-09-16T15:11:43.650Z,0.45
2022-09-16T15:14:07.960Z,0.95
2022-09-16T15:16:41.602Z,0.68
2022-09-16T15:19:21.553Z,0.30
2022-09-16T15:21:49.211Z,0.40
2022-09-16T15:24:23.235Z,0.90
2022-09-16T15:26:50.463Z,0.60
2022-09-16T15:29:22.806Z,0.50
2022-09-16T15:31:50.937Z,0.38
2022-09-16T15:34:23.538Z,0.25
2022-09-16T15:36:58.502Z,0.20
2022-09-16T15:39:36.005Z,0.28
2022-09-16T15:42:22.323Z,0.20
2022-09-16T15:44:53.072Z,0.32
2022-09-16T15:47:25.235Z,0.35
2022-09-16T15:50:01.101Z,0.35
2022-09-16T15:52:27.973Z,0.30
2022-09-16T15:54:59.633Z,0.22
2022-09-16T15:57:43.376Z,0.20
2022-09-16T16:00:14.200Z,0.45
2022-09-16T16:02:50.683Z,0.40
2022-09-16T16:05:18.873Z,0.45
2022-09-16T16:07:49.445Z,0.50
2022-09-16T16:10:22.233Z,0.30
2022-09-16T16:12:50.248Z,0.60
2022-09-16T16:15:21.044Z,0.50
2022-09-16T16:17:49.086Z,0.55
2022-09-16T16:20:17.330Z,0.75
2022-09-16T16:22:46.709Z,0.40
2022-09-16T16:25:14.010Z,0.60
2022-09-16T16:27:40.697Z,0.60
2022-09-16T16:30:08.707Z,0.65
2022-09-16T16:32:35.526Z,0.45
2022-09-16T16:35:02.416Z,0.60
2022-09-16T16:37:45.411Z,0.50
2022-09-16T16:40:12.571Z,0.57
2022-09-16T16:42:40.424Z,0.63
2022-09-16T16:45:07.875Z,0.40
2022-09-16T16:47:35.003Z,0.57
2022-09-16T16:50:01.878Z,0.47
2022-09-16T16:52:29.025Z,0.20
2022-09-16T16:54:55.632Z,0.20
2022-09-16T16:57:22.438Z,0.40
2022-09-16T16:59:49.517Z,0.20
2022-09-16T17:02:16.292Z,0.20
2022-09-16T17:04:43.429Z,0.10
2022-09-16T17:07:27.630Z,0.20
2022-09-16T17:09:54.753Z,0.20
2022-09-16T17:12:21.522Z,0.40
2022-09-16T17:14:48.324Z,0.53
2022-09-16T17:17:15.042Z,0.57
2022-09-16T17:19:42.391Z,0.30
2022-09-16T17:22:08.959Z,0.20
2022-09-16T17:24:35.571Z,0.17
2022-09-16T17:27:02.382Z,0.40
2022-09-16T17:29:29.032Z,0.32
2022-09-16T17:31:57.312Z,0.20
2022-09-16T17:34:26.547Z,0.23
2022-09-16T17:36:53.219Z,0.20
2022-09-16T17:39:21.155Z,0.20
2022-09-16T17:41:49.064Z,0.30
2022-09-16T17:44:17.511Z,0.40
2022-09-16T17:46:45.462Z,0.30
2022-09-16T17:49:18.900Z,0.53
2022-09-16T17:51:46.119Z,0.60
2022-09-16T17:54:13.241Z,0.40
2022-09-16T17:56:41.287Z,0.40
2022-09-16T17:59:08.062Z,0.87
2022-09-16T18:01:35.270Z,0.30
2022-09-16T18:04:02.433Z,0.30
2022-09-16T18:06:32.086Z,0.30
2022-09-16T18:09:05.547Z,0.50
2022-09-16T18:11:32.233Z,0.30
2022-09-16T18:14:01.659Z,0.10
2022-09-16T18:16:29.919Z,0.40
2022-09-16T18:18:59.416Z,0.20
2022-09-16T18:21:26.842Z,0.20
2022-09-16T18:23:56.289Z,0.60
2022-09-16T18:26:24.073Z,0.50
2022-09-16T18:29:09.115Z,0.73
2022-09-16T18:31:37.141Z,0.40
2022-09-16T18:34:04.112Z,0.40
2022-09-16T18:36:32.706Z,0.50
2022-09-16T18:38:59.709Z,0.50
2022-09-16T18:41:29.535Z,0.20
2022-09-16T18:44:07.651Z,0.30
2022-09-16T18:46:36.752Z,0.40
2022-09-16T18:49:04.238Z,0.47
2022-09-16T18:51:37.033Z,0.63
2022-09-16T18:54:06.501Z,0.90
2022-09-16T18:56:35.540Z,0.60
2022-09-16T18:59:24.177Z,0.50
2022-09-16T19:01:53.585Z,0.97
2022-09-16T19:04:23.249Z,0.80
2022-09-16T19:06:52.684Z,0.70
2022-09-16T19:09:22.091Z,0.63
2022-09-16T19:11:49.575Z,0.80
2022-09-16T19:14:16.804Z,0.50
2022-09-16T19:16:44.996Z,0.40
2022-09-16T19:19:13.903Z,0.60
2022-09-16T19:21:42.189Z,0.60
2022-09-16T19:24:14.142Z,0.50
2022-09-16T19:26:42.213Z,0.80
2022-09-16T19:29:10.183Z,0.90
2022-09-16T19:31:39.179Z,0.80
2022-09-16T19:34:06.358Z,1.17
2022-09-16T19:36:34.856Z,0.70
2022-09-16T19:39:01.660Z,0.60
2022-09-16T19:41:30.650Z,0.90
2022-09-16T19:43:59.709Z,0.50
2022-09-16T19:46:27.900Z,1.00
2022-09-16T19:48:55.169Z,0.40
2022-09-16T19:51:23.897Z,0.80
2022-09-16T19:53:52.767Z,0.60
2022-09-16T19:56:32.966Z,0.60
2022-09-16T19:59:01.559Z,0.60
2022-09-16T20:01:30.967Z,1.03
2022-09-16T20:03:57.987Z,1.07
2022-09-16T20:06:27.928Z,0.50
2022-09-16T20:08:57.182Z,0.30
2022-09-16T20:11:25.880Z,0.97
2022-09-16T20:14:02.128Z,0.50
2022-09-16T20:16:31.655Z,0.40
2022-09-16T20:18:58.335Z,0.70
2022-09-16T20:21:26.677Z,1.17
2022-09-16T20:23:54.641Z,0.47
2022-09-16T20:26:22.890Z,1.00
2022-09-16T20:28:54.225Z,0.80
2022-09-16T20:31:26.959Z,0.30
2022-09-16T20:33:54.315Z,0.60
2022-09-16T20:36:23.489Z,0.70
2022-09-16T20:38:50.819Z,0.30
2022-09-16T20:41:18.563Z,0.53
2022-09-16T20:43:46.240Z,0.40
2022-09-16T20:46:14.379Z,0.50
2022-09-16T20:48:42.685Z,0.37
2022-09-16T20:51:12.086Z,0.30
2022-09-16T20:53:40.121Z,0.40
2022-09-16T20:56:12.459Z,0.30
2022-09-16T20:58:39.695Z,0.50
2022-09-16T21:01:13.371Z,0.57
2022-09-16T21:03:39.943Z,0.40
2022-09-16T21:06:09.740Z,0.47
2022-09-16T21:08:39.951Z,0.80
2022-09-16T21:11:15.857Z,1.10
2022-09-16T21:13:44.959Z,0.40
2022-09-16T21:16:14.485Z,0.80
2022-09-16T21:18:42.336Z,0.30
2022-09-16T21:21:14.458Z,0.63
2022-09-16T21:23:41.911Z,0.50
2022-09-16T21:26:19.769Z,0.97
2022-09-16T21:28:49.335Z,0.43
2022-09-16T21:31:16.380Z,0.43
2022-09-16T21:33:44.867Z,0.50
2022-09-16T21:36:13.817Z,0.60
2022-09-16T21:38:41.618Z,0.60
2022-09-16T21:41:13.163Z,0.50
2022-09-16T21:43:43.581Z,0.67
2022-09-16T21:46:12.639Z,0.90
2022-09-16T21:48:39.459Z,0.50
2022-09-16T21:51:09.596Z,0.50
2022-09-16T21:53:42.724Z,0.50
2022-09-16T21:56:15.330Z,0.40
2022-09-16T21:58:42.123Z,0.73
2022-09-16T22:01:08.715Z,0.43
2022-09-16T22:03:36.011Z,0.50
2022-09-16T22:06:03.032Z,0.50
2022-09-16T22:08:30.029Z,0.40
2022-09-16T22:11:07.175Z,0.53
2022-09-16T22:13:34.725Z,0.50
2022-09-16T22:16:02.271Z,0.30
2022-09-16T22:18:30.584Z,0.30
2022-09-16T22:21:03.437Z,0.60
2022-09-16T22:23:30.221Z,1.47
2022-09-16T22:25:56.805Z,0.40
2022-09-16T22:28:23.483Z,0.67
2022-09-16T22:30:50.213Z,0.40
2022-09-16T22:33:16.827Z,1.30
2022-09-16T22:35:43.646Z,0.50
2022-09-16T22:38:10.219Z,0.60
2022-09-16T22:40:36.977Z,0.83
2022-09-16T22:43:03.619Z,1.03
2022-09-16T22:45:30.649Z,0.47
2022-09-16T22:47:57.263Z,0.30
2022-09-16T22:50:24.314Z,0.40
2022-09-16T22:52:50.930Z,0.47
2022-09-16T22:55:17.621Z,0.47
2022-09-16T22:57:44.429Z,0.60
2022-09-16T23:00:11.695Z,0.80
2022-09-16T23:02:38.383Z,0.43
2022-09-16T23:05:05.578Z,0.60
2022-09-16T23:07:33.357Z,0.50
2022-09-16T23:10:00.947Z,0.50
2022-09-16T23:12:28.203Z,0.50
2022-09-16T23:14:54.750Z,1.17
2022-09-16T23:17:22.145Z,0.50
2022-09-16T23:19:48.773Z,0.77
2022-09-16T23:22:15.319Z,0.80
2022-09-16T23:24:42.153Z,0.60
2022-09-16T23:27:08.853Z,0.80
2022-09-16T23:29:35.455Z,0.63
2022-09-16T23:32:04.306Z,1.17
2022-09-16T23:34:30.921Z,0.67
2022-09-16T23:36:57.504Z,0.53
2022-09-16T23:39:24.116Z,0.57
2022-09-16T23:41:51.404Z,0.60
2022-09-16T23:44:18.319Z,1.00
2022-09-16T23:46:44.937Z,0.53
2022-09-16T23:49:12.172Z,0.90
2022-09-16T23:51:39.272Z,0.70
2022-09-16T23:54:05.996Z,1.33
2022-09-16T23:56:32.909Z,1.03
2022-09-16T23:59:01.032Z,0.60
